sensor_id;sensor_type;location;lat;lon;timestamp;pressure;altitude;pressure_sealevel;temperature;humidity
56719;BME280;42597;40.636;0.278;2024-01-30T00:01:35;98721.69;;;13.69;96.74
56719;BME280;42597;40.636;0.278;2024-01-30T00:04:02;98729.75;;;14.16;91.20
56719;BME280;42597;40.636;0.278;2024-01-30T00:06:27;98722.53;;;14.20;91.40
56719;BME280;42597;40.636;0.278;2024-01-30T00:08:53;98723.66;;;13.90;93.95
56719;BME280;42597;40.636;0.278;2024-01-30T00:11:18;98715.41;;;14.07;91.70
56719;BME280;42597;40.636;0.278;2024-01-30T00:13:44;98721.66;;;14.28;90.30
56719;BME280;42597;40.636;0.278;2024-01-30T00:16:20;98718.75;;;14.33;89.74
56719;BME280;42597;40.636;0.278;2024-01-30T00:18:46;98710.72;;;14.16;90.50
56719;BME280;42597;40.636;0.278;2024-01-30T00:21:12;98720.03;;;14.06;91.88
56719;BME280;42597;40.636;0.278;2024-01-30T00:23:38;98708.38;;;14.06;92.18
56719;BME280;42597;40.636;0.278;2024-01-30T00:26:04;98716.34;;;13.81;93.84
56719;BME280;42597;40.636;0.278;2024-01-30T00:28:30;98711.31;;;14.43;88.44
56719;BME280;42597;40.636;0.278;2024-01-30T00:30:56;98709.97;;;14.07;91.95
56719;BME280;42597;40.636;0.278;2024-01-30T00:33:22;98711.97;;;14.19;91.08
56719;BME280;42597;40.636;0.278;2024-01-30T00:35:47;98719.88;;;14.32;88.95
56719;BME280;42597;40.636;0.278;2024-01-30T00:38:13;98714.94;;;14.55;86.67
56719;BME280;42597;40.636;0.278;2024-01-30T00:40:38;98714.06;;;13.92;93.38
56719;BME280;42597;40.636;0.278;2024-01-30T00:43:04;98714.50;;;14.45;87.35
56719;BME280;42597;40.636;0.278;2024-01-30T00:45:30;98715.53;;;14.11;91.00
56719;BME280;42597;40.636;0.278;2024-01-30T00:47:55;98711.72;;;14.32;88.58
56719;BME280;42597;40.636;0.278;2024-01-30T00:50:21;98714.16;;;14.46;87.82
56719;BME280;42597;40.636;0.278;2024-01-30T00:52:47;98707.59;;;14.47;86.97
56719;BME280;42597;40.636;0.278;2024-01-30T00:55:13;98703.91;;;14.52;86.34
56719;BME280;42597;40.636;0.278;2024-01-30T00:57:39;98705.72;;;13.97;91.81
56719;BME280;42597;40.636;0.278;2024-01-30T01:00:06;98697.78;;;14.34;88.31
56719;BME280;42597;40.636;0.278;2024-01-30T01:02:34;98706.53;;;14.19;90.89
56719;BME280;42597;40.636;0.278;2024-01-30T01:05:00;98697.91;;;14.38;87.58
56719;BME280;42597;40.636;0.278;2024-01-30T01:07:25;98690.38;;;14.64;84.79
56719;BME280;42597;40.636;0.278;2024-01-30T01:09:51;98694.72;;;14.15;88.96
56719;BME280;42597;40.636;0.278;2024-01-30T01:12:16;98685.72;;;14.44;87.05
56719;BME280;42597;40.636;0.278;2024-01-30T01:14:42;98677.97;;;14.88;83.11
56719;BME280;42597;40.636;0.278;2024-01-30T01:17:08;98673.78;;;15.02;82.23
56719;BME280;42597;40.636;0.278;2024-01-30T01:19:33;98679.38;;;15.06;81.10
56719;BME280;42597;40.636;0.278;2024-01-30T01:21:59;98677.81;;;15.17;80.45
56719;BME280;42597;40.636;0.278;2024-01-30T01:24:25;98685.03;;;15.01;80.70
56719;BME280;42597;40.636;0.278;2024-01-30T01:26:50;98680.97;;;15.31;79.45
56719;BME280;42597;40.636;0.278;2024-01-30T01:29:16;98675.53;;;15.31;79.13
56719;BME280;42597;40.636;0.278;2024-01-30T01:31:42;98679.28;;;15.27;79.24
56719;BME280;42597;40.636;0.278;2024-01-30T01:34:12;98681.53;;;15.00;80.08
56719;BME280;42597;40.636;0.278;2024-01-30T01:36:39;98677.00;;;15.17;79.73
56719;BME280;42597;40.636;0.278;2024-01-30T01:39:05;98670.06;;;15.07;80.39
56719;BME280;42597;40.636;0.278;2024-01-30T01:41:31;98674.03;;;15.10;79.94
56719;BME280;42597;40.636;0.278;2024-01-30T01:43:57;98672.13;;;15.10;79.26
56719;BME280;42597;40.636;0.278;2024-01-30T01:46:24;98679.44;;;14.52;81.80
56719;BME280;42597;40.636;0.278;2024-01-30T01:48:50;98680.97;;;14.74;82.05
56719;BME280;42597;40.636;0.278;2024-01-30T01:51:16;98682.53;;;13.70;83.64
56719;BME280;42597;40.636;0.278;2024-01-30T01:53:44;98674.44;;;14.12;86.21
56719;BME280;42597;40.636;0.278;2024-01-30T01:56:10;98685.66;;;14.31;83.40
56719;BME280;42597;40.636;0.278;2024-01-30T01:58:36;98679.88;;;13.91;86.01
56719;BME280;42597;40.636;0.278;2024-01-30T02:01:03;98679.34;;;13.98;86.25
56719;BME280;42597;40.636;0.278;2024-01-30T02:03:30;98674.25;;;14.17;86.32
56719;BME280;42597;40.636;0.278;2024-01-30T02:05:56;98668.59;;;14.22;85.55
56719;BME280;42597;40.636;0.278;2024-01-30T02:08:23;98669.00;;;14.12;85.55
56719;BME280;42597;40.636;0.278;2024-01-30T02:10:49;98676.50;;;14.15;86.20
56719;BME280;42597;40.636;0.278;2024-01-30T02:13:15;98671.56;;;13.28;92.98
56719;BME280;42597;40.636;0.278;2024-01-30T02:15:40;98674.94;;;13.25;94.50
56719;BME280;42597;40.636;0.278;2024-01-30T02:18:06;98667.28;;;14.28;86.96
56719;BME280;42597;40.636;0.278;2024-01-30T02:20:35;98660.41;;;14.52;84.27
56719;BME280;42597;40.636;0.278;2024-01-30T02:23:01;98658.38;;;14.40;84.78
56719;BME280;42597;40.636;0.278;2024-01-30T02:25:40;98659.44;;;14.48;84.43
56719;BME280;42597;40.636;0.278;2024-01-30T02:28:26;98656.25;;;14.46;84.14
56719;BME280;42597;40.636;0.278;2024-01-30T02:30:52;98657.91;;;14.59;83.35
56719;BME280;42597;40.636;0.278;2024-01-30T02:33:18;98656.81;;;14.60;83.24
56719;BME280;42597;40.636;0.278;2024-01-30T02:35:44;98649.34;;;14.69;82.29
56719;BME280;42597;40.636;0.278;2024-01-30T02:38:10;98661.84;;;14.49;83.33
56719;BME280;42597;40.636;0.278;2024-01-30T02:40:35;98659.56;;;14.72;82.18
56719;BME280;42597;40.636;0.278;2024-01-30T02:43:02;98653.88;;;14.44;84.01
56719;BME280;42597;40.636;0.278;2024-01-30T02:45:28;98661.31;;;14.14;86.54
56719;BME280;42597;40.636;0.278;2024-01-30T02:47:54;98662.91;;;14.57;83.80
56719;BME280;42597;40.636;0.278;2024-01-30T02:50:20;98656.41;;;14.82;81.35
56719;BME280;42597;40.636;0.278;2024-01-30T02:52:46;98649.84;;;14.84;81.41
56719;BME280;42597;40.636;0.278;2024-01-30T02:55:12;98661.28;;;14.35;85.77
56719;BME280;42597;40.636;0.278;2024-01-30T02:57:40;98654.00;;;14.48;84.76
56719;BME280;42597;40.636;0.278;2024-01-30T03:00:06;98651.09;;;14.53;83.88
56719;BME280;42597;40.636;0.278;2024-01-30T03:02:35;98640.16;;;14.41;86.77
56719;BME280;42597;40.636;0.278;2024-01-30T03:05:01;98648.31;;;14.41;85.62
56719;BME280;42597;40.636;0.278;2024-01-30T03:07:26;98648.81;;;14.55;84.48
56719;BME280;42597;40.636;0.278;2024-01-30T03:09:52;98644.09;;;14.52;84.17
56719;BME280;42597;40.636;0.278;2024-01-30T03:12:18;98635.97;;;14.64;82.74
56719;BME280;42597;40.636;0.278;2024-01-30T03:14:43;98629.91;;;14.92;80.67
56719;BME280;42597;40.636;0.278;2024-01-30T03:17:09;98625.69;;;14.94;80.86
56719;BME280;42597;40.636;0.278;2024-01-30T03:19:34;98641.00;;;14.53;84.06
56719;BME280;42597;40.636;0.278;2024-01-30T03:22:00;98631.84;;;14.58;83.34
56719;BME280;42597;40.636;0.278;2024-01-30T03:24:25;98628.34;;;14.37;85.57
56719;BME280;42597;40.636;0.278;2024-01-30T03:26:51;98634.69;;;14.07;89.72
56719;BME280;42597;40.636;0.278;2024-01-30T03:29:17;98635.72;;;13.94;90.76
56719;BME280;42597;40.636;0.278;2024-01-30T03:31:43;98639.16;;;14.24;87.30
56719;BME280;42597;40.636;0.278;2024-01-30T03:34:08;98626.84;;;14.06;90.43
56719;BME280;42597;40.636;0.278;2024-01-30T03:36:34;98624.72;;;13.91;90.77
56719;BME280;42597;40.636;0.278;2024-01-30T03:39:00;98627.91;;;13.93;92.13
56719;BME280;42597;40.636;0.278;2024-01-30T03:41:26;98628.03;;;13.75;92.99
56719;BME280;42597;40.636;0.278;2024-01-30T03:43:52;98633.19;;;14.10;88.71
56719;BME280;42597;40.636;0.278;2024-01-30T03:46:17;98632.53;;;13.71;93.61
56719;BME280;42597;40.636;0.278;2024-01-30T03:48:44;98626.03;;;14.26;87.75
56719;BME280;42597;40.636;0.278;2024-01-30T03:51:09;98622.59;;;13.46;96.67
56719;BME280;42597;40.636;0.278;2024-01-30T03:53:40;98635.72;;;13.73;94.06
56719;BME280;42597;40.636;0.278;2024-01-30T03:56:06;98639.91;;;13.92;91.33
56719;BME280;42597;40.636;0.278;2024-01-30T03:58:32;98627.50;;;14.03;89.27
56719;BME280;42597;40.636;0.278;2024-01-30T04:00:57;98630.75;;;14.17;88.14
56719;BME280;42597;40.636;0.278;2024-01-30T04:03:23;98631.72;;;14.33;86.43
56719;BME280;42597;40.636;0.278;2024-01-30T04:05:49;98629.69;;;14.51;83.94
56719;BME280;42597;40.636;0.278;2024-01-30T04:08:14;98631.53;;;14.60;83.56
56719;BME280;42597;40.636;0.278;2024-01-30T04:10:40;98632.63;;;14.59;83.65
56719;BME280;42597;40.636;0.278;2024-01-30T04:13:05;98640.78;;;14.59;83.17
56719;BME280;42597;40.636;0.278;2024-01-30T04:15:31;98642.47;;;14.51;83.69
56719;BME280;42597;40.636;0.278;2024-01-30T04:17:58;98640.72;;;14.67;82.58
56719;BME280;42597;40.636;0.278;2024-01-30T04:20:24;98646.09;;;14.76;81.37
56719;BME280;42597;40.636;0.278;2024-01-30T04:22:50;98646.53;;;14.78;81.40
56719;BME280;42597;40.636;0.278;2024-01-30T04:25:16;98650.44;;;14.56;83.02
56719;BME280;42597;40.636;0.278;2024-01-30T04:27:42;98648.59;;;14.06;90.15
56719;BME280;42597;40.636;0.278;2024-01-30T04:30:08;98655.88;;;14.14;88.04
56719;BME280;42597;40.636;0.278;2024-01-30T04:32:35;98655.22;;;14.17;89.31
56719;BME280;42597;40.636;0.278;2024-01-30T04:35:01;98648.28;;;14.62;85.28
56719;BME280;42597;40.636;0.278;2024-01-30T04:37:26;98655.63;;;14.49;83.99
56719;BME280;42597;40.636;0.278;2024-01-30T04:39:52;98660.50;;;14.35;87.41
56719;BME280;42597;40.636;0.278;2024-01-30T04:42:18;98659.34;;;14.23;88.11
56719;BME280;42597;40.636;0.278;2024-01-30T04:44:44;98656.56;;;13.61;96.48
56719;BME280;42597;40.636;0.278;2024-01-30T04:47:09;98647.84;;;13.97;93.46
56719;BME280;42597;40.636;0.278;2024-01-30T04:49:38;98653.56;;;13.83;93.90
56719;BME280;42597;40.636;0.278;2024-01-30T04:52:05;98647.50;;;13.98;92.20
56719;BME280;42597;40.636;0.278;2024-01-30T04:54:31;98648.31;;;13.99;92.88
56719;BME280;42597;40.636;0.278;2024-01-30T04:56:57;98644.44;;;14.42;87.75
56719;BME280;42597;40.636;0.278;2024-01-30T04:59:23;98647.38;;;13.95;92.68
56719;BME280;42597;40.636;0.278;2024-01-30T05:01:49;98642.47;;;13.67;96.04
56719;BME280;42597;40.636;0.278;2024-01-30T05:04:14;98650.84;;;13.15;100.00
56719;BME280;42597;40.636;0.278;2024-01-30T05:06:40;98648.28;;;13.57;97.88
56719;BME280;42597;40.636;0.278;2024-01-30T05:09:06;98648.91;;;13.54;99.27
56719;BME280;42597;40.636;0.278;2024-01-30T05:11:36;98664.50;;;12.80;100.00
56719;BME280;42597;40.636;0.278;2024-01-30T05:14:02;98652.56;;;13.28;100.00
56719;BME280;42597;40.636;0.278;2024-01-30T05:16:27;98660.63;;;12.99;100.00
56719;BME280;42597;40.636;0.278;2024-01-30T05:18:53;98667.72;;;12.82;100.00
56719;BME280;42597;40.636;0.278;2024-01-30T05:21:18;98659.97;;;13.02;100.00
56719;BME280;42597;40.636;0.278;2024-01-30T05:23:44;98660.91;;;13.23;100.00
56719;BME280;42597;40.636;0.278;2024-01-30T05:26:10;98670.66;;;13.07;100.00
56719;BME280;42597;40.636;0.278;2024-01-30T05:28:35;98668.72;;;13.25;100.00
56719;BME280;42597;40.636;0.278;2024-01-30T05:31:01;98670.31;;;14.06;92.47
56719;BME280;42597;40.636;0.278;2024-01-30T05:33:27;98665.13;;;13.71;96.34
56719;BME280;42597;40.636;0.278;2024-01-30T05:35:53;98663.44;;;13.88;94.91
56719;BME280;42597;40.636;0.278;2024-01-30T05:38:19;98657.59;;;13.98;95.11
56719;BME280;42597;40.636;0.278;2024-01-30T05:40:45;98665.69;;;14.06;91.56
56719;BME280;42597;40.636;0.278;2024-01-30T05:43:11;98665.16;;;13.92;92.55
56719;BME280;42597;40.636;0.278;2024-01-30T05:45:37;98664.41;;;14.46;87.15
56719;BME280;42597;40.636;0.278;2024-01-30T05:48:03;98656.25;;;14.46;88.07
56719;BME280;42597;40.636;0.278;2024-01-30T05:50:28;98667.44;;;14.11;91.27
56719;BME280;42597;40.636;0.278;2024-01-30T05:52:54;98676.09;;;14.25;88.16
56719;BME280;42597;40.636;0.278;2024-01-30T05:55:19;98673.44;;;14.59;84.11
56719;BME280;42597;40.636;0.278;2024-01-30T05:57:45;98678.59;;;14.72;83.13
56719;BME280;42597;40.636;0.278;2024-01-30T06:00:11;98678.78;;;14.46;85.38
56719;BME280;42597;40.636;0.278;2024-01-30T06:02:36;98676.97;;;14.17;91.23
56719;BME280;42597;40.636;0.278;2024-01-30T06:05:02;98686.91;;;14.13;91.17
56719;BME280;42597;40.636;0.278;2024-01-30T06:07:28;98689.41;;;13.97;91.63
56719;BME280;42597;40.636;0.278;2024-01-30T06:09:53;98678.53;;;14.93;83.03
56719;BME280;42597;40.636;0.278;2024-01-30T06:12:19;98687.94;;;15.53;79.04
56719;BME280;42597;40.636;0.278;2024-01-30T06:14:45;98693.72;;;15.64;77.89
56719;BME280;42597;40.636;0.278;2024-01-30T06:17:10;98688.47;;;15.22;83.17
56719;BME280;42597;40.636;0.278;2024-01-30T06:19:38;98692.38;;;13.54;99.42
56719;BME280;42597;40.636;0.278;2024-01-30T06:22:04;98696.94;;;13.32;100.00
56719;BME280;42597;40.636;0.278;2024-01-30T06:24:30;98704.84;;;12.99;100.00
56719;BME280;42597;40.636;0.278;2024-01-30T06:26:55;98699.81;;;12.54;100.00
56719;BME280;42597;40.636;0.278;2024-01-30T06:29:21;98697.72;;;12.25;100.00
56719;BME280;42597;40.636;0.278;2024-01-30T06:31:47;98701.38;;;12.29;100.00
56719;BME280;42597;40.636;0.278;2024-01-30T06:34:13;98696.75;;;12.13;100.00
56719;BME280;42597;40.636;0.278;2024-01-30T06:36:39;98699.28;;;12.09;100.00
56719;BME280;42597;40.636;0.278;2024-01-30T06:39:04;98701.25;;;12.34;100.00
56719;BME280;42597;40.636;0.278;2024-01-30T06:41:31;98712.88;;;12.26;100.00
56719;BME280;42597;40.636;0.278;2024-01-30T06:43:56;98715.56;;;12.09;100.00
56719;BME280;42597;40.636;0.278;2024-01-30T06:46:22;98720.00;;;12.05;100.00
56719;BME280;42597;40.636;0.278;2024-01-30T06:48:48;98713.00;;;12.21;100.00
56719;BME280;42597;40.636;0.278;2024-01-30T06:51:13;98716.84;;;12.03;100.00
56719;BME280;42597;40.636;0.278;2024-01-30T06:53:39;98718.72;;;11.94;100.00
56719;BME280;42597;40.636;0.278;2024-01-30T06:56:05;98717.00;;;12.06;100.00
56719;BME280;42597;40.636;0.278;2024-01-30T06:58:31;98722.25;;;12.03;100.00
56719;BME280;42597;40.636;0.278;2024-01-30T07:00:58;98726.91;;;12.20;100.00
56719;BME280;42597;40.636;0.278;2024-01-30T07:03:24;98724.81;;;12.34;100.00
56719;BME280;42597;40.636;0.278;2024-01-30T07:05:49;98732.31;;;12.46;100.00
56719;BME280;42597;40.636;0.278;2024-01-30T07:08:16;98733.59;;;12.48;100.00
56719;BME280;42597;40.636;0.278;2024-01-30T07:10:43;98728.34;;;12.52;100.00
56719;BME280;42597;40.636;0.278;2024-01-30T07:13:10;98736.94;;;12.54;100.00
56719;BME280;42597;40.636;0.278;2024-01-30T07:15:36;98739.81;;;12.83;100.00
56719;BME280;42597;40.636;0.278;2024-01-30T07:18:02;98736.97;;;12.71;100.00
56719;BME280;42597;40.636;0.278;2024-01-30T07:20:28;98745.53;;;12.30;100.00
56719;BME280;42597;40.636;0.278;2024-01-30T07:22:55;98739.50;;;12.24;100.00
56719;BME280;42597;40.636;0.278;2024-01-30T07:25:21;98742.03;;;12.29;100.00
56719;BME280;42597;40.636;0.278;2024-01-30T07:27:47;98749.69;;;12.62;100.00
56719;BME280;42597;40.636;0.278;2024-01-30T07:30:12;98747.31;;;12.60;100.00
56719;BME280;42597;40.636;0.278;2024-01-30T07:32:38;98749.38;;;12.90;100.00
56719;BME280;42597;40.636;0.278;2024-01-30T07:35:04;98764.03;;;12.37;100.00
56719;BME280;42597;40.636;0.278;2024-01-30T07:37:29;98752.75;;;12.34;100.00
56719;BME280;42597;40.636;0.278;2024-01-30T07:39:55;98757.66;;;12.32;100.00
56719;BME280;42597;40.636;0.278;2024-01-30T07:42:21;98759.91;;;12.30;100.00
56719;BME280;42597;40.636;0.278;2024-01-30T07:44:46;98763.25;;;12.36;100.00
56719;BME280;42597;40.636;0.278;2024-01-30T07:47:12;98759.59;;;12.32;100.00
56719;BME280;42597;40.636;0.278;2024-01-30T07:49:40;98764.84;;;12.28;100.00
56719;BME280;42597;40.636;0.278;2024-01-30T07:52:06;98771.66;;;12.17;100.00
56719;BME280;42597;40.636;0.278;2024-01-30T07:54:32;98775.50;;;12.16;100.00
56719;BME280;42597;40.636;0.278;2024-01-30T07:57:04;98766.59;;;12.24;100.00
56719;BME280;42597;40.636;0.278;2024-01-30T07:59:29;98771.06;;;12.38;100.00
56719;BME280;42597;40.636;0.278;2024-01-30T08:01:55;98770.88;;;12.25;100.00
56719;BME280;42597;40.636;0.278;2024-01-30T08:04:21;98769.13;;;12.29;100.00
56719;BME280;42597;40.636;0.278;2024-01-30T08:06:46;98781.53;;;12.13;100.00
56719;BME280;42597;40.636;0.278;2024-01-30T08:09:12;98773.91;;;12.15;100.00
56719;BME280;42597;40.636;0.278;2024-01-30T08:11:37;98776.81;;;12.27;100.00
56719;BME280;42597;40.636;0.278;2024-01-30T08:14:03;98775.50;;;12.16;100.00
56719;BME280;42597;40.636;0.278;2024-01-30T08:16:28;98780.28;;;12.19;100.00
56719;BME280;42597;40.636;0.278;2024-01-30T08:18:54;98788.25;;;12.24;100.00
56719;BME280;42597;40.636;0.278;2024-01-30T08:21:22;98791.75;;;12.16;100.00
56719;BME280;42597;40.636;0.278;2024-01-30T08:23:48;98787.16;;;12.34;100.00
56719;BME280;42597;40.636;0.278;2024-01-30T08:26:14;98801.19;;;12.36;100.00
56719;BME280;42597;40.636;0.278;2024-01-30T08:28:39;98792.91;;;12.50;100.00
56719;BME280;42597;40.636;0.278;2024-01-30T08:31:05;98804.59;;;12.76;100.00
56719;BME280;42597;40.636;0.278;2024-01-30T08:33:30;98795.63;;;12.50;100.00
56719;BME280;42597;40.636;0.278;2024-01-30T08:35:56;98795.63;;;12.50;100.00
56719;BME280;42597;40.636;0.278;2024-01-30T08:38:21;98802.97;;;12.58;100.00
56719;BME280;42597;40.636;0.278;2024-01-30T08:40:47;98805.53;;;12.80;100.00
56719;BME280;42597;40.636;0.278;2024-01-30T08:43:13;98809.06;;;12.55;100.00
56719;BME280;42597;40.636;0.278;2024-01-30T08:45:38;98810.94;;;12.46;100.00
56719;BME280;42597;40.636;0.278;2024-01-30T08:48:04;98807.59;;;12.66;100.00
56719;BME280;42597;40.636;0.278;2024-01-30T08:50:30;98814.75;;;12.45;100.00
56719;BME280;42597;40.636;0.278;2024-01-30T08:52:55;98809.97;;;12.42;100.00
56719;BME280;42597;40.636;0.278;2024-01-30T08:55:22;98815.44;;;12.59;100.00
56719;BME280;42597;40.636;0.278;2024-01-30T08:57:47;98805.50;;;12.46;100.00
56719;BME280;42597;40.636;0.278;2024-01-30T09:00:13;98818.44;;;12.49;100.00
56719;BME280;42597;40.636;0.278;2024-01-30T09:02:39;98810.94;;;12.46;100.00
56719;BME280;42597;40.636;0.278;2024-01-30T09:05:05;98810.63;;;12.56;100.00
56719;BME280;42597;40.636;0.278;2024-01-30T09:07:31;98817.03;;;12.60;100.00
56719;BME280;42597;40.636;0.278;2024-01-30T09:09:56;98813.81;;;12.41;100.00
56719;BME280;42597;40.636;0.278;2024-01-30T09:12:22;98818.31;;;12.63;100.00
56719;BME280;42597;40.636;0.278;2024-01-30T09:14:48;98824.03;;;12.44;100.00
56719;BME280;42597;40.636;0.278;2024-01-30T09:17:14;98825.16;;;12.69;100.00
56719;BME280;42597;40.636;0.278;2024-01-30T09:19:40;98834.59;;;12.71;100.00
56719;BME280;42597;40.636;0.278;2024-01-30T09:22:06;98838.75;;;12.95;100.00
56719;BME280;42597;40.636;0.278;2024-01-30T09:24:31;98831.06;;;12.97;100.00
56719;BME280;42597;40.636;0.278;2024-01-30T09:26:57;98842.88;;;12.83;100.00
56719;BME280;42597;40.636;0.278;2024-01-30T09:29:22;98838.72;;;12.77;100.00
56719;BME280;42597;40.636;0.278;2024-01-30T09:31:48;98833.31;;;12.77;100.00
56719;BME280;42597;40.636;0.278;2024-01-30T09:34:14;98839.66;;;12.47;100.00
56719;BME280;42597;40.636;0.278;2024-01-30T09:36:40;98836.25;;;12.32;100.00
56719;BME280;42597;40.636;0.278;2024-01-30T09:39:05;98837.13;;;12.59;100.00
56719;BME280;42597;40.636;0.278;2024-01-30T09:41:48;98840.75;;;12.46;100.00
56719;BME280;42597;40.636;0.278;2024-01-30T09:44:20;98839.69;;;12.64;100.00
56719;BME280;42597;40.636;0.278;2024-01-30T09:46:47;98842.69;;;12.54;100.00
56719;BME280;42597;40.636;0.278;2024-01-30T09:49:13;98845.72;;;12.70;100.00
56719;BME280;42597;40.636;0.278;2024-01-30T09:51:39;98842.25;;;12.87;100.00
56719;BME280;42597;40.636;0.278;2024-01-30T09:54:07;98851.13;;;12.52;100.00
56719;BME280;42597;40.636;0.278;2024-01-30T09:56:33;98854.06;;;12.99;100.00
56719;BME280;42597;40.636;0.278;2024-01-30T09:58:59;98852.78;;;12.97;100.00
56719;BME280;42597;40.636;0.278;2024-01-30T10:01:25;98854.47;;;12.49;100.00
56719;BME280;42597;40.636;0.278;2024-01-30T10:03:51;98849.56;;;12.60;100.00
56719;BME280;42597;40.636;0.278;2024-01-30T10:06:19;98846.22;;;12.89;100.00
56719;BME280;42597;40.636;0.278;2024-01-30T10:08:46;98852.13;;;13.34;100.00
56719;BME280;42597;40.636;0.278;2024-01-30T10:11:11;98859.50;;;13.08;100.00
56719;BME280;42597;40.636;0.278;2024-01-30T10:13:39;98855.94;;;12.73;100.00
56719;BME280;42597;40.636;0.278;2024-01-30T10:16:04;98861.53;;;12.76;100.00
56719;BME280;42597;40.636;0.278;2024-01-30T10:18:32;98861.84;;;12.66;100.00
56719;BME280;42597;40.636;0.278;2024-01-30T10:20:59;98862.59;;;12.41;100.00
56719;BME280;42597;40.636;0.278;2024-01-30T10:23:24;98859.00;;;12.80;100.00
56719;BME280;42597;40.636;0.278;2024-01-30T10:25:53;98856.44;;;12.83;100.00
56719;BME280;42597;40.636;0.278;2024-01-30T10:28:19;98861.00;;;12.40;100.00
56719;BME280;42597;40.636;0.278;2024-01-30T10:30:45;98865.66;;;12.65;100.00
56719;BME280;42597;40.636;0.278;2024-01-30T10:33:11;98869.00;;;12.62;100.00
56719;BME280;42597;40.636;0.278;2024-01-30T10:35:37;98866.50;;;12.74;100.00
56719;BME280;42597;40.636;0.278;2024-01-30T10:38:03;98859.66;;;13.03;100.00
56719;BME280;42597;40.636;0.278;2024-01-30T10:40:31;98866.34;;;13.05;100.00
56719;BME280;42597;40.636;0.278;2024-01-30T10:43:00;98870.66;;;13.15;100.00
56719;BME280;42597;40.636;0.278;2024-01-30T10:45:28;98869.06;;;13.05;100.00
56719;BME280;42597;40.636;0.278;2024-01-30T10:47:55;98869.38;;;12.87;100.00
56719;BME280;42597;40.636;0.278;2024-01-30T10:50:24;98861.41;;;12.99;100.00
56719;BME280;42597;40.636;0.278;2024-01-30T10:52:51;98869.84;;;13.06;100.00
56719;BME280;42597;40.636;0.278;2024-01-30T10:55:18;98865.38;;;12.75;100.00
56719;BME280;42597;40.636;0.278;2024-01-30T10:57:44;98857.25;;;12.93;99.20
56719;BME280;42597;40.636;0.278;2024-01-30T11:00:14;98868.72;;;12.98;99.82
56719;BME280;42597;40.636;0.278;2024-01-30T11:02:45;98860.44;;;13.29;99.38
56719;BME280;42597;40.636;0.278;2024-01-30T11:05:12;98857.56;;;13.00;98.64
56719;BME280;42597;40.636;0.278;2024-01-30T11:07:39;98860.13;;;13.05;98.17
56719;BME280;42597;40.636;0.278;2024-01-30T11:10:06;98858.84;;;12.94;99.52
56719;BME280;42597;40.636;0.278;2024-01-30T11:12:39;98845.75;;;13.13;98.39
56719;BME280;42597;40.636;0.278;2024-01-30T11:15:18;98852.28;;;13.21;98.16
56719;BME280;42597;40.636;0.278;2024-01-30T11:20:29;98847.47;;;13.52;95.90
56719;BME280;42597;40.636;0.278;2024-01-30T11:22:56;98845.91;;;13.17;96.77
56719;BME280;42597;40.636;0.278;2024-01-30T11:25:23;98842.22;;;13.21;98.16
56719;BME280;42597;40.636;0.278;2024-01-30T11:27:51;98837.78;;;13.25;99.63
56719;BME280;42597;40.636;0.278;2024-01-30T11:30:31;98837.31;;;13.23;100.00
56719;BME280;42597;40.636;0.278;2024-01-30T11:35:38;98832.50;;;13.38;98.57
56719;BME280;42597;40.636;0.278;2024-01-30T11:38:11;98830.19;;;13.66;97.95
56719;BME280;42597;40.636;0.278;2024-01-30T11:40:39;98827.13;;;13.76;96.84
56719;BME280;42597;40.636;0.278;2024-01-30T11:43:06;98822.38;;;13.64;96.87
56719;BME280;42597;40.636;0.278;2024-01-30T11:45:32;98825.28;;;13.42;97.56
56719;BME280;42597;40.636;0.278;2024-01-30T11:47:58;98820.19;;;13.14;100.00
56719;BME280;42597;40.636;0.278;2024-01-30T11:50:32;98814.28;;;13.38;100.00
56719;BME280;42597;40.636;0.278;2024-01-30T11:53:02;98810.00;;;13.28;100.00
56719;BME280;42597;40.636;0.278;2024-01-30T11:55:29;98814.09;;;13.52;99.26
56719;BME280;42597;40.636;0.278;2024-01-30T11:57:59;98808.44;;;13.74;96.90
56719;BME280;42597;40.636;0.278;2024-01-30T12:00:24;98806.19;;;13.76;94.80
56719;BME280;42597;40.636;0.278;2024-01-30T12:02:51;98798.94;;;13.42;98.28
56719;BME280;42597;40.636;0.278;2024-01-30T12:05:21;98798.50;;;13.31;99.45
56719;BME280;42597;40.636;0.278;2024-01-30T12:07:47;98793.91;;;13.70;96.28
56719;BME280;42597;40.636;0.278;2024-01-30T12:10:13;98788.75;;;13.77;95.73
56719;BME280;42597;40.636;0.278;2024-01-30T12:12:41;98786.03;;;13.77;95.83
56719;BME280;42597;40.636;0.278;2024-01-30T12:15:07;98785.63;;;13.58;97.22
56719;BME280;42597;40.636;0.278;2024-01-30T12:17:34;98784.25;;;13.43;96.76
56719;BME280;42597;40.636;0.278;2024-01-30T12:20:13;98776.66;;;13.66;95.35
56719;BME280;42597;40.636;0.278;2024-01-30T12:22:43;98780.06;;;13.54;94.57
56719;BME280;42597;40.636;0.278;2024-01-30T12:25:27;98780.72;;;13.51;95.47
56719;BME280;42597;40.636;0.278;2024-01-30T12:27:53;98779.66;;;13.26;97.94
56719;BME280;42597;40.636;0.278;2024-01-30T12:30:20;98768.13;;;13.38;97.95
56719;BME280;42597;40.636;0.278;2024-01-30T12:32:49;98766.56;;;13.28;100.00
56719;BME280;42597;40.636;0.278;2024-01-30T12:35:17;98767.53;;;12.98;100.00
56719;BME280;42597;40.636;0.278;2024-01-30T12:37:44;98765.28;;;13.17;100.00
56719;BME280;42597;40.636;0.278;2024-01-30T12:40:11;98763.81;;;13.37;100.00
56719;BME280;42597;40.636;0.278;2024-01-30T12:42:38;98759.75;;;13.61;99.42
56719;BME280;42597;40.636;0.278;2024-01-30T12:45:05;98757.19;;;13.64;99.07
56719;BME280;42597;40.636;0.278;2024-01-30T12:47:31;98756.03;;;13.36;100.00
56719;BME280;42597;40.636;0.278;2024-01-30T12:49:57;98745.88;;;13.92;95.87
56719;BME280;42597;40.636;0.278;2024-01-30T12:52:23;98742.16;;;13.67;97.31
56719;BME280;42597;40.636;0.278;2024-01-30T12:54:49;98746.53;;;13.89;92.98
56719;BME280;42597;40.636;0.278;2024-01-30T12:57:16;98745.16;;;13.36;95.98